Time;durP1;ratioP1;P1;durP2;ratioP2;P2;SDS_P1;SDS_P2;PMS_P1;PMS_P2;Temp;Humidity;BMP_temperature;BMP_pressure;BME280_temperature;BME280_humidity;BME280_pressure;Samples;Min_cycle;Max_cycle;Signal;HPM_P1;HPM_P2
2023/02/16 00:00:41;;;;;;;32.28;26.02;;;;;;;4.88;100.00;102428.88;5114772;28;20253;-37
2023/02/16 00:03:19;;;;;;;33.72;26.75;;;;;;;4.81;100.00;102430.47;5115065;28;20024;-37
2023/02/16 00:05:45;;;;;;;34.85;26.38;;;;;;;4.72;100.00;102422.50;5115354;28;20043;-37
2023/02/16 00:08:10;;;;;;;30.95;24.65;;;;;;;4.81;100.00;102432.31;5114682;28;20016;-37
2023/02/16 00:10:37;;;;;;;32.00;25.70;;;;;;;4.79;100.00;102431.66;5115315;28;20035;-37
2023/02/16 00:13:43;;;;;;;33.22;26.35;;;;;;;4.79;100.00;102429.81;5114360;28;20451;-37
2023/02/16 00:16:20;;;;;;;31.02;24.80;;;;;;;4.78;100.00;102438.84;5115063;28;20028;-37
2023/02/16 00:18:47;;;;;;;31.73;25.58;;;;;;;4.77;100.00;102428.25;5114490;28;20019;-37
2023/02/16 00:21:12;;;;;;;;;;;;;;;4.82;100.00;102425.94;5115230;28;20421;-37
2023/02/16 00:23:38;;;;;;;30.30;23.15;;;;;;;4.72;100.00;102418.00;5113922;28;19915;-37
2023/02/16 00:26:04;;;;;;;33.03;25.33;;;;;;;4.73;100.00;102421.50;5115039;28;20031;-37
2023/02/16 00:28:30;;;;;;;33.58;26.25;;;;;;;4.72;100.00;102423.34;5114369;28;20281;-37
2023/02/16 00:30:56;;;;;;;31.77;25.27;;;;;;;4.76;100.00;102421.22;5114033;28;20040;-37
2023/02/16 00:33:21;;;;;;;32.23;25.37;;;;;;;4.73;100.00;102430.41;5114335;28;20035;-37
2023/02/16 00:35:47;;;;;;;33.72;25.50;;;;;;;4.74;100.00;102424.06;5114782;28;20277;-37
2023/02/16 00:38:13;;;;;;;33.75;25.90;;;;;;;4.69;100.00;102418.31;5114211;28;20055;-37
2023/02/16 00:40:39;;;;;;;;;;;;;;;4.77;100.00;102426.41;5115222;28;20129;-37
2023/02/16 00:43:06;;;;;;;30.35;24.73;;;;;;;4.72;100.00;102420.69;5114491;28;19907;-37
2023/02/16 00:45:36;;;;;;;34.30;25.60;;;;;;;4.73;100.00;102424.19;5114250;28;20042;-37
2023/02/16 00:48:01;;;;;;;34.55;26.13;;;;;;;4.70;100.00;102427.19;5114631;28;20490;-37
2023/02/16 00:50:31;;;;;;;32.33;24.23;;;;;;;4.68;100.00;102421.13;5114353;28;20020;-37
2023/02/16 00:52:57;;;;;;;29.63;23.75;;;;;;;4.63;100.00;102422.44;5114588;28;20027;-37
2023/02/16 00:55:34;;;;;;;34.25;25.20;;;;;;;4.53;100.00;102410.13;5113973;28;20035;-37
2023/02/16 00:58:12;;;;;;;28.52;23.70;;;;;;;4.58;100.00;102421.22;5113763;28;20035;-37
2023/02/16 01:00:47;;;;;;;33.40;25.13;;;;;;;4.58;100.00;102415.84;5114596;28;20480;-37
2023/02/16 01:03:18;;;;;;;33.50;25.50;;;;;;;4.51;100.00;102409.44;5114283;28;20035;-37
2023/02/16 01:05:43;;;;;;;31.98;25.23;;;;;;;4.49;100.00;102403.38;5113769;28;20090;-37
2023/02/16 01:11:11;;;;;;;32.47;24.83;;;;;;;4.52;100.00;102405.75;5115523;28;20115;-38
2023/02/16 01:13:45;;;;;;;30.42;24.60;;;;;;;4.46;100.00;102392.97;5118407;28;20102;-37
2023/02/16 01:16:17;;;;;;;32.83;25.02;;;;;;;4.51;100.00;102409.44;5118281;28;20027;-37
2023/02/16 01:18:44;;;;;;;31.65;25.50;;;;;;;4.52;100.00;102403.06;5118648;28;20028;-38
2023/02/16 01:21:09;;;;;;;;;;;;;;;4.57;100.00;102403.47;5118731;28;20032;-37
2023/02/16 01:23:36;;;;;;;29.98;24.40;;;;;;;4.52;100.00;102397.72;5118177;28;20369;-37
2023/02/16 01:26:01;;;;;;;31.10;24.95;;;;;;;4.54;100.00;102407.31;5117876;28;20479;-37
2023/02/16 01:28:27;;;;;;;32.60;25.48;;;;;;;4.54;100.00;102401.06;5117467;28;20027;-37
2023/02/16 01:30:52;;;;;;;33.70;26.17;;;;;;;4.56;100.00;102401.78;5117845;28;20059;-37
2023/02/16 01:33:19;;;;;;;30.63;24.00;;;;;;;4.53;100.00;102386.84;5118240;28;20073;-37
2023/02/16 01:35:44;;;;;;;;;;;;;;;4.58;100.00;102389.06;5117847;28;20278;-37
2023/02/16 01:38:19;;;;;;;33.22;24.50;;;;;;;4.50;100.00;102389.84;5117689;28;19912;-37
2023/02/16 01:40:53;;;;;;;33.15;26.27;;;;;;;4.52;100.00;102385.16;5117581;28;20055;-37
2023/02/16 01:43:23;;;;;;;33.08;25.73;;;;;;;4.34;100.00;102365.56;5117259;28;20077;-37
2023/02/16 01:46:33;;;;;;;32.17;25.80;;;;;;;4.43;100.00;102369.16;5117597;28;20035;-37
2023/02/16 01:48:58;;;;;;;36.13;27.60;;;;;;;4.39;100.00;102364.13;5117971;28;20031;-37
2023/02/16 01:51:55;;;;;;;34.63;26.37;;;;;;;4.40;100.00;102362.28;5117193;28;20391;-37
2023/02/16 01:54:31;;;;;;;37.13;25.90;;;;;;;4.34;100.00;102353.03;5117661;28;20027;-37
2023/02/16 01:57:15;;;;;;;30.98;24.88;;;;;;;4.37;100.00;102360.75;5118145;28;20036;-37
2023/02/16 01:59:43;;;;;;;33.53;25.65;;;;;;;4.42;100.00;102360.28;5117783;28;20459;-37
2023/02/16 02:02:38;;;;;;;31.95;24.92;;;;;;;4.44;100.00;102365.50;5117142;28;20486;-37
2023/02/16 02:08:18;;;;;;;37.35;26.65;;;;;;;4.35;100.00;102352.03;5117149;28;20038;-37
2023/02/16 02:10:56;;;;;;;32.35;25.80;;;;;;;4.44;100.00;102369.03;5117857;28;20024;-37
2023/02/16 02:13:30;;;;;;;31.50;25.35;;;;;;;4.48;100.00;102362.34;5117562;28;20036;-37
2023/02/16 02:15:58;;;;;;;32.85;26.30;;;;;;;4.45;100.00;102365.34;5116890;28;20035;-37
2023/02/16 02:18:23;;;;;;;34.72;27.00;;;;;;;4.37;100.00;102360.75;5117434;28;20090;-37
2023/02/16 02:24:33;;;;;;;32.25;26.20;;;;;;;4.36;100.00;102348.38;5088596;28;20567;-37
2023/02/16 02:27:32;;;;;;;35.00;26.13;;;;;;;4.32;100.00;102340.78;5117009;28;20383;-37
2023/02/16 02:30:33;;;;;;;32.42;25.20;;;;;;;4.28;100.00;102350.94;5115999;28;20039;-37
2023/02/16 02:33:04;;;;;;;34.22;25.33;;;;;;;4.33;100.00;102354.00;5116898;28;20416;-37
2023/02/16 02:35:38;;;;;;;33.50;26.40;;;;;;;4.22;100.00;102330.16;5116253;28;20028;-37
2023/02/16 02:38:13;;;;;;;33.75;26.05;;;;;;;4.25;100.00;102337.06;5116782;28;20032;-37
2023/02/16 02:41:07;;;;;;;35.10;26.88;;;;;;;4.24;100.00;102338.84;5116985;28;20456;-37
2023/02/16 02:43:41;;;;;;;31.38;24.92;;;;;;;4.29;100.00;102333.03;5116076;28;20032;-38
2023/02/16 02:46:23;;;;;;;31.38;24.58;;;;;;;4.27;100.00;102333.22;5116953;28;20363;-37
2023/02/16 02:48:49;;;;;;;35.15;27.23;;;;;;;4.23;100.00;102322.94;5116558;28;20031;-37
2023/02/16 02:51:27;;;;;;;33.55;27.10;;;;;;;4.24;100.00;102319.28;5116626;28;20035;-37
2023/02/16 03:02:58;;;;;;;32.03;25.70;;;;;;;4.24;100.00;102320.13;5116372;28;20043;-37
2023/02/16 03:05:26;;;;;;;34.80;26.10;;;;;;;4.15;100.00;102302.31;5116265;28;20059;-37
2023/02/16 03:08:05;;;;;;;36.90;27.92;;;;;;;4.19;100.00;102308.19;5116218;27;20035;-37
2023/02/16 03:13:23;;;;;;;33.90;26.95;;;;;;;4.18;100.00;102320.72;5116410;28;20120;-37
2023/02/16 03:15:54;;;;;;;34.88;27.45;;;;;;;4.12;100.00;102310.66;5115692;28;20023;-37
2023/02/16 03:29:26;;;;;;;36.08;27.27;;;;;;;3.93;100.00;102298.25;5115830;28;20437;-37
2023/02/16 03:31:55;;;;;;;35.67;26.52;;;;;;;3.92;100.00;102304.59;5115442;27;20068;-37
2023/02/16 03:34:21;;;;;;;35.78;27.88;;;;;;;3.90;100.00;102297.69;5114482;28;20023;-36
2023/02/16 03:36:50;;;;;;;37.63;28.80;;;;;;;3.89;100.00;102299.53;5115290;28;20024;-37
2023/02/16 03:39:16;;;;;;;36.03;28.00;;;;;;;3.84;100.00;102302.66;5115877;28;20032;-37
2023/02/16 03:41:46;;;;;;;35.17;28.38;;;;;;;3.82;100.00;102295.78;5115461;28;20027;-37
2023/02/16 03:44:12;;;;;;;38.25;27.40;;;;;;;3.87;100.00;102301.53;5114907;28;20475;-37
2023/02/16 03:46:37;;;;;;;39.38;31.25;;;;;;;3.78;100.00;102279.19;5115172;28;20028;-37
2023/02/16 03:49:03;;;;;;;36.60;26.98;;;;;;;3.75;100.00;102267.94;5115686;28;20065;-37
2023/02/16 03:51:28;;;;;;;34.87;28.50;;;;;;;3.75;100.00;102279.47;5114719;28;20023;-37
2023/02/16 03:53:54;;;;;;;37.28;28.38;;;;;;;3.83;100.00;102295.63;5115572;28;20035;-37
2023/02/16 03:56:19;;;;;;;33.77;28.10;;;;;;;3.82;100.00;102296.63;5115315;28;20427;-37
2023/02/16 03:58:44;;;;;;;36.97;27.87;;;;;;;3.81;100.00;102294.97;5114534;28;20476;-37
2023/02/16 04:01:10;;;;;;;41.27;30.47;;;;;;;3.90;100.00;102303.88;5114495;28;20038;-37
2023/02/16 04:03:35;;;;;;;37.42;28.55;;;;;;;3.91;100.00;102307.44;5115088;28;20023;-37
2023/02/16 04:06:01;;;;;;;39.03;29.37;;;;;;;3.88;100.00;102304.03;5115075;28;20391;-37
2023/02/16 04:08:26;;;;;;;40.83;29.37;;;;;;;3.94;100.00;102305.28;5114745;28;20097;-37
2023/02/16 04:10:53;;;;;;;38.17;29.57;;;;;;;3.93;100.00;102305.44;5115479;28;20023;-37
2023/02/16 04:13:18;;;;;;;37.67;30.10;;;;;;;3.90;100.00;102303.03;5114586;28;20039;-37
2023/02/16 04:15:43;;;;;;;36.03;27.80;;;;;;;3.90;100.00;102306.56;5115081;28;20031;-37
2023/02/16 04:18:09;;;;;;;37.43;28.33;;;;;;;3.92;100.00;102301.91;5114528;28;20269;-37
2023/02/16 04:20:35;;;;;;;37.93;28.80;;;;;;;3.92;100.00;102306.44;5114578;28;20122;-37
2023/02/16 04:23:01;;;;;;;33.35;27.52;;;;;;;3.98;100.00;102309.34;5114015;28;20039;-37
2023/02/16 04:25:27;;;;;;;34.33;26.70;;;;;;;3.94;100.00;102315.97;5114987;28;20494;-37
2023/02/16 04:27:52;;;;;;;37.95;29.02;;;;;;;3.99;100.00;102310.16;5114414;28;20027;-37
2023/02/16 04:30:24;;;;;;;36.17;29.17;;;;;;;3.94;100.00;102297.25;5114966;28;20023;-37
2023/02/16 04:32:51;;;;;;;37.15;27.92;;;;;;;3.99;100.00;102319.03;5114580;28;20043;-37
2023/02/16 04:35:16;;;;;;;;;;;;;;;4.05;100.00;102313.09;5114415;27;20019;-37
2023/02/16 04:37:41;;;;;;;35.47;26.70;;;;;;;3.99;100.00;102299.47;5114312;28;19960;-37
2023/02/16 04:40:13;;;;;;;39.87;28.93;;;;;;;4.06;100.00;102317.47;5114818;28;20092;-37
2023/02/16 04:42:42;;;;;;;41.15;29.50;;;;;;;4.06;100.00;102321.97;5114238;27;20316;-37
2023/02/16 04:45:08;;;;;;;38.17;28.45;;;;;;;4.06;100.00;102305.91;5113462;28;20054;-37
2023/02/16 04:47:34;;;;;;;33.53;27.42;;;;;;;4.10;100.00;102316.16;5113853;28;20036;-38
2023/02/16 04:49:59;;;;;;;39.45;29.15;;;;;;;4.10;100.00;102305.44;5114662;28;20122;-38
2023/02/16 04:52:25;;;;;;;38.00;28.53;;;;;;;4.05;100.00;102302.41;5113796;28;20028;-38
2023/02/16 04:54:50;;;;;;;41.60;30.20;;;;;;;4.10;100.00;102307.28;5113745;28;20027;-38
2023/02/16 04:57:16;;;;;;;38.03;29.83;;;;;;;4.14;100.00;102305.97;5113773;28;20027;-38
2023/02/16 04:59:42;;;;;;;40.28;29.67;;;;;;;4.13;100.00;102293.59;5113971;28;20102;-38
2023/02/16 05:02:07;;;;;;;39.40;30.17;;;;;;;4.13;100.00;102288.22;5113691;28;20059;-38
2023/02/16 05:04:33;;;;;;;37.23;29.17;;;;;;;4.16;100.00;102312.03;5113982;28;20032;-38
2023/02/16 05:06:58;;;;;;;40.22;30.63;;;;;;;4.11;100.00;102317.00;5113951;28;20031;-38
2023/02/16 05:09:24;;;;;;;36.97;29.33;;;;;;;4.19;100.00;102314.38;5113971;28;20528;-38
2023/02/16 05:14:41;;;;;;;37.05;28.35;;;;;;;4.22;100.00;102298.03;5114471;28;20030;-38
2023/02/16 05:17:21;;;;;;;38.03;29.67;;;;;;;4.25;100.00;102307.59;5114095;28;20115;-38
2023/02/16 05:19:49;;;;;;;37.33;30.13;;;;;;;4.24;100.00;102285.31;5114181;28;20028;-37
2023/02/16 05:22:14;;;;;;;35.42;28.38;;;;;;;4.27;100.00;102294.88;5113788;28;20455;-37
2023/02/16 05:24:41;;;;;;;32.50;26.40;;;;;;;4.30;100.00;102294.59;5113980;28;20191;-37
2023/02/16 05:27:10;;;;;;;36.92;28.80;;;;;;;4.32;100.00;102300.63;5113414;28;20040;-37
2023/02/16 05:29:35;;;;;;;37.25;28.38;;;;;;;4.36;100.00;102305.50;5114022;28;20036;-37
2023/02/16 05:32:00;;;;;;;37.03;29.43;;;;;;;4.33;100.00;102289.72;5114262;28;20036;-37
2023/02/16 05:34:26;;;;;;;34.30;29.00;;;;;;;4.27;100.00;102273.47;5114552;28;20489;-37
2023/02/16 05:36:52;;;;;;;37.80;29.20;;;;;;;4.38;100.00;102298.16;5113300;28;20632;-37
2023/02/16 05:39:17;;;;;;;35.20;27.63;;;;;;;4.27;100.00;102278.81;5114022;28;20027;-37
2023/02/16 05:41:43;;;;;;;38.30;30.33;;;;;;;4.40;100.00;102295.34;5112344;28;20038;-37
2023/02/16 05:44:09;;;;;;;34.45;27.75;;;;;;;4.46;100.00;102289.34;5113900;28;20032;-37
2023/02/16 05:46:36;;;;;;;33.47;27.63;;;;;;;4.38;100.00;102286.59;5114402;28;20077;-38
2023/02/16 05:49:03;;;;;;;35.28;29.42;;;;;;;4.44;100.00;102288.69;5113240;28;20463;-38
2023/02/16 05:51:29;;;;;;;38.72;30.58;;;;;;;4.44;100.00;102275.28;5113493;28;20118;-38
2023/02/16 05:53:54;;;;;;;35.45;28.67;;;;;;;4.43;100.00;102270.91;5113536;28;20032;-37
2023/02/16 05:56:20;;;;;;;35.65;28.83;;;;;;;4.47;100.00;102279.47;5113274;28;20023;-38
2023/02/16 05:58:46;;;;;;;36.85;29.20;;;;;;;4.50;100.00;102274.66;5118004;28;20370;-38
2023/02/16 06:01:12;;;;;;;33.88;26.67;;;;;;;4.52;100.00;102282.53;5117571;28;20032;-38
2023/02/16 06:03:37;;;;;;;35.75;28.27;;;;;;;4.51;100.00;102287.03;5117154;28;20074;-38
2023/02/16 06:06:04;;;;;;;36.00;28.88;;;;;;;4.45;100.00;102284.16;5117225;28;20051;-37
2023/02/16 06:08:30;;;;;;;39.17;30.45;;;;;;;4.55;100.00;102288.41;5117558;28;20024;-37
2023/02/16 06:10:55;;;;;;;;;;;;;;;4.58;100.00;102289.94;5117574;28;20411;-37
2023/02/16 06:13:21;;;;;;;37.85;28.13;;;;;;;4.57;100.00;102288.25;5116951;28;19907;-38
2023/02/16 06:15:50;;;;;;;;;;;;;;;4.60;100.00;102274.56;5117608;27;20455;-37
2023/02/16 06:18:15;;;;;;;34.17;27.25;;;;;;;4.58;100.00;102266.66;5117144;28;20256;-37
2023/02/16 06:20:41;;;;;;;35.70;28.07;;;;;;;4.57;100.00;102275.69;5116890;28;20034;-37
2023/02/16 06:23:09;;;;;;;36.77;28.60;;;;;;;4.59;100.00;102272.88;5117427;28;20073;-37
2023/02/16 06:25:34;;;;;;;34.75;29.35;;;;;;;4.58;100.00;102269.34;5117483;27;20189;-37
2023/02/16 06:28:00;;;;;;;35.37;29.13;;;;;;;4.62;100.00;102264.50;5116713;28;20099;-37
2023/02/16 06:30:26;;;;;;;36.63;29.40;;;;;;;4.62;100.00;102278.75;5117257;28;20596;-37
2023/02/16 06:32:51;;;;;;;35.60;27.15;;;;;;;4.66;100.00;102295.34;5117430;28;20024;-38
2023/02/16 06:35:17;;;;;;;37.37;28.07;;;;;;;4.49;100.00;102272.09;5116818;28;20019;-37
2023/02/16 06:37:42;;;;;;;35.77;28.30;;;;;;;4.67;100.00;102301.56;5117069;28;20040;-37
2023/02/16 06:40:09;;;;;;;39.77;27.57;;;;;;;4.67;100.00;102306.91;5116276;28;20023;-37
2023/02/16 06:42:36;;;;;;;37.67;28.98;;;;;;;4.69;100.00;102321.84;5116054;28;20111;-37
2023/02/16 06:45:02;;;;;;;36.28;28.27;;;;;;;4.69;100.00;102312.97;5116716;28;20028;-38
2023/02/16 06:47:27;;;;;;;;;;;;;;;4.73;100.00;102308.97;5116796;28;20520;-37
2023/02/16 06:49:53;;;;;;;35.27;28.73;;;;;;;4.63;100.00;102306.38;5116324;27;19912;-37
2023/02/16 06:52:18;;;;;;;33.77;27.47;;;;;;;4.70;100.00;102310.13;5116237;28;20334;-37
2023/02/16 06:54:43;;;;;;;31.80;26.23;;;;;;;4.70;100.00;102309.28;5116209;28;20384;-37
2023/02/16 06:57:09;;;;;;;32.87;27.20;;;;;;;4.68;100.00;102293.34;5116923;28;20042;-37
2023/02/16 06:59:34;;;;;;;31.80;25.90;;;;;;;4.79;100.00;102308.34;5116247;28;20020;-37
2023/02/16 07:01:59;;;;;;;31.63;26.67;;;;;;;4.71;100.00;102297.56;5116103;28;20459;-37
2023/02/16 07:04:25;;;;;;;37.07;29.63;;;;;;;4.77;100.00;102321.06;5116890;28;20099;-37
2023/02/16 07:06:51;;;;;;;35.22;28.58;;;;;;;4.76;100.00;102319.38;5115956;28;20437;-38
2023/02/16 07:09:17;;;;;;;32.63;26.92;;;;;;;4.77;100.00;102319.22;5115221;28;20031;-38
2023/02/16 07:11:42;;;;;;;35.13;28.83;;;;;;;4.76;100.00;102308.66;5115891;28;20379;-38
2023/02/16 07:14:08;;;;;;;34.83;28.70;;;;;;;4.78;100.00;102320.91;5116392;28;20024;-38
2023/02/16 07:16:33;;;;;;;34.53;28.87;;;;;;;4.71;100.00;102303.75;5115738;27;20024;-37
2023/02/16 07:18:58;;;;;;;35.70;29.53;;;;;;;4.78;100.00;102312.88;5116128;28;20056;-37
2023/02/16 07:21:24;;;;;;;33.40;28.27;;;;;;;4.82;100.00;102318.75;5116221;28;20020;-37
2023/02/16 07:23:49;;;;;;;35.47;28.20;;;;;;;4.84;100.00;102317.59;5115990;28;20085;-37
2023/02/16 07:26:14;;;;;;;31.37;25.50;;;;;;;4.89;100.00;102306.41;5116101;28;20525;-38
2023/02/16 07:28:40;;;;;;;36.13;27.57;;;;;;;4.91;100.00;102317.81;5115740;28;20031;-38
2023/02/16 07:31:08;;;;;;;33.30;26.67;;;;;;;4.95;100.00;102315.66;5115798;28;20058;-37
2023/02/16 07:33:33;;;;;;;33.10;27.02;;;;;;;4.94;100.00;102298.72;5115400;28;20264;-37
2023/02/16 07:35:58;;;;;;;31.00;27.30;;;;;;;5.02;100.00;102316.69;5115579;28;20023;-37
2023/02/16 07:38:24;;;;;;;33.63;26.53;;;;;;;5.07;100.00;102309.00;5115311;28;20028;-37
2023/02/16 07:40:49;;;;;;;33.20;26.33;;;;;;;5.07;100.00;102309.84;5115340;28;20150;-37
2023/02/16 07:43:14;;;;;;;32.00;26.87;;;;;;;5.11;100.00;102321.94;5114933;28;20036;-37
2023/02/16 07:45:41;;;;;;;35.83;28.70;;;;;;;5.09;100.00;102315.91;5115448;28;20425;-37
2023/02/16 07:48:06;;;;;;;;;;;;;;;5.21;100.00;102329.88;5115181;28;20106;-37
2023/02/16 07:50:31;;;;;;;33.15;26.63;;;;;;;5.18;100.00;102327.53;5115103;27;19959;-37
2023/02/16 07:53:01;;;;;;;32.73;25.87;;;;;;;5.22;100.00;102323.53;5115818;28;20024;-37
2023/02/16 07:55:26;;;;;;;32.05;26.15;;;;;;;5.23;100.00;102324.38;5115222;28;20016;-37
2023/02/16 07:57:55;;;;;;;34.67;27.53;;;;;;;5.27;100.00;102331.06;5114983;28;20027;-37
2023/02/16 08:00:21;;;;;;;33.88;26.50;;;;;;;5.28;100.00;102328.25;5114886;28;20073;-37
2023/02/16 08:02:47;;;;;;;33.22;26.63;;;;;;;5.29;100.00;102321.88;5114606;28;20035;-38
2023/02/16 08:05:13;;;;;;;31.55;26.73;;;;;;;5.26;100.00;102305.25;5115372;28;20024;-37
2023/02/16 08:07:39;;;;;;;31.53;25.70;;;;;;;5.33;100.00;102325.94;5114767;28;20020;-37
2023/02/16 08:10:05;;;;;;;30.35;25.10;;;;;;;5.35;100.00;102337.31;5115535;28;20023;-37
2023/02/16 08:12:31;;;;;;;29.23;24.25;;;;;;;5.38;100.00;102328.97;5114830;28;20042;-37
2023/02/16 08:14:56;;;;;;;30.60;26.45;;;;;;;5.39;100.00;102333.31;5114190;28;20057;-38
2023/02/16 08:17:22;;;;;;;28.40;24.77;;;;;;;5.35;100.00;102323.91;5114325;28;20156;-38
2023/02/16 08:19:47;;;;;;;32.20;24.43;;;;;;;5.39;100.00;102332.50;5114971;28;20118;-37
2023/02/16 08:22:12;;;;;;;32.27;24.53;;;;;;;5.50;100.00;102337.56;5115166;28;20024;-37
2023/02/16 08:24:38;;;;;;;32.00;25.70;;;;;;;5.53;100.00;102349.81;5115280;28;20467;-37
2023/02/16 08:27:04;;;;;;;27.87;24.50;;;;;;;5.56;100.00;102347.66;5114719;28;20110;-37
2023/02/16 08:29:30;;;;;;;28.67;24.52;;;;;;;5.60;100.00;102342.78;5115027;28;20023;-37
2023/02/16 08:31:56;;;;;;;;;;;;;;;5.69;100.00;102347.19;5115443;28;20061;-37
2023/02/16 08:34:23;;;;;;;28.73;24.13;;;;;;;5.68;100.00;102343.69;5114663;28;19959;-37
2023/02/16 08:36:55;;;;;;;28.73;24.10;;;;;;;5.72;100.00;102346.88;5113948;28;20027;-37
2023/02/16 08:39:23;;;;;;;37.25;29.77;;;;;;;5.74;100.00;102354.75;5115079;28;20032;-38
2023/02/16 08:41:49;;;;;;;30.80;26.88;;;;;;;5.78;100.00;102356.13;5114172;28;20107;-38
2023/02/16 08:44:16;;;;;;;32.53;26.00;;;;;;;5.80;100.00;102354.94;5114259;28;20027;-38
2023/02/16 08:46:43;;;;;;;32.30;25.52;;;;;;;5.77;100.00;102341.03;5114132;28;20080;-38
2023/02/16 08:49:10;;;;;;;29.77;24.90;;;;;;;5.85;100.00;102355.31;5114970;28;20120;-38
2023/02/16 08:51:46;;;;;;;28.25;24.15;;;;;;;5.90;100.00;102353.00;5113779;28;20051;-38
2023/02/16 08:54:38;;;;;;;30.95;26.00;;;;;;;5.96;100.00;102354.22;5114104;28;20024;-38
2023/02/16 08:57:04;;;;;;;29.00;25.08;;;;;;;5.98;100.00;102356.72;5110574;28;20046;-37
2023/02/16 08:59:29;;;;;;;27.45;24.27;;;;;;;5.77;100.00;102324.94;5113791;28;20027;-37
2023/02/16 09:01:56;;;;;;;28.08;25.08;;;;;;;6.04;100.00;102366.81;5114056;28;20028;-37
2023/02/16 09:04:23;;;;;;;26.80;23.85;;;;;;;6.09;100.00;102369.84;5114318;28;20026;-36
2023/02/16 09:06:49;;;;;;;30.80;24.85;;;;;;;6.09;100.00;102367.16;5113955;28;20046;-37
2023/02/16 09:09:14;;;;;;;31.02;24.30;;;;;;;6.06;100.00;102367.50;5114787;28;20447;-37
2023/02/16 09:11:40;;;;;;;35.03;25.27;;;;;;;6.12;100.00;102378.41;5114476;28;20180;-41
2023/02/16 09:14:06;;;;;;;28.50;24.63;;;;;;;6.16;100.00;102378.94;5113523;28;20466;-37
2023/02/16 09:16:32;;;;;;;28.80;24.98;;;;;;;6.16;100.00;102377.09;5114128;28;20031;-38
2023/02/16 09:19:00;;;;;;;28.88;24.15;;;;;;;6.26;100.00;102387.69;5114185;28;20055;-37
2023/02/16 09:21:26;;;;;;;29.48;23.83;;;;;;;6.22;100.00;102367.53;5113793;28;20054;-38
2023/02/16 09:23:55;;;;;;;27.50;23.67;;;;;;;6.33;100.00;102382.47;5114682;28;20388;-38
2023/02/16 09:26:23;;;;;;;28.15;24.30;;;;;;;6.35;100.00;102381.31;5113817;28;20132;-37
2023/02/16 09:28:49;;;;;;;29.02;23.75;;;;;;;6.31;100.00;102368.38;5113685;28;20062;-37
2023/02/16 09:31:18;;;;;;;;;;;;;;;6.39;100.00;102373.75;5114538;28;20077;-37
2023/02/16 09:33:45;;;;;;;27.38;22.88;;;;;;;6.35;100.00;102375.94;5117622;28;19919;-37
2023/02/16 09:36:11;;;;;;;28.52;24.77;;;;;;;6.32;100.00;102375.44;5117996;28;20063;-37
2023/02/16 09:38:40;;;;;;;31.17;25.38;;;;;;;6.36;100.00;102374.09;5117692;28;20024;-37
2023/02/16 09:41:19;;;;;;;27.10;23.92;;;;;;;6.37;100.00;102368.56;5117936;28;20360;-37
2023/02/16 09:43:50;;;;;;;27.52;23.13;;;;;;;6.41;100.00;102374.44;5117605;28;20028;-37
2023/02/16 09:46:19;;;;;;;30.98;25.85;;;;;;;6.39;100.00;102363.00;5118171;28;20045;-37
2023/02/16 09:48:48;;;;;;;28.35;24.98;;;;;;;6.40;100.00;102359.34;5117500;28;20023;-37
2023/02/16 09:51:39;;;;;;;29.60;25.38;;;;;;;6.40;100.00;102357.47;5118304;28;20119;-38
2023/02/16 09:54:20;;;;;;;27.60;24.48;;;;;;;6.40;100.00;102352.09;5117955;28;20073;-38
2023/02/16 09:56:53;;;;;;;31.67;26.85;;;;;;;6.38;100.00;102346.03;5117318;28;20062;-38
2023/02/16 09:59:38;;;;;;;33.58;27.33;;;;;;;6.37;100.00;102356.97;5117642;28;20027;-38
2023/02/16 10:02:31;;;;;;;27.73;24.67;;;;;;;6.39;100.00;102369.25;5116904;28;20035;-40
2023/02/16 10:05:16;;;;;;;30.40;25.85;;;;;;;6.36;100.00;102361.50;5116876;28;20168;-37
2023/02/16 10:07:59;;;;;;;33.47;27.27;;;;;;;6.36;100.00;102371.41;5117100;28;20049;-37
2023/02/16 10:10:31;;;;;;;30.25;26.65;;;;;;;6.32;100.00;102364.69;5117332;28;20384;-37
2023/02/16 10:13:12;;;;;;;29.30;25.70;;;;;;;6.33;100.00;102364.50;5117047;28;20035;-37
2023/02/16 10:15:42;;;;;;;31.27;27.40;;;;;;;6.24;100.00;102362.81;5117188;28;20111;-37
2023/02/16 10:18:26;;;;;;;29.90;26.10;;;;;;;6.32;100.00;102381.63;5116974;28;20016;-37
2023/02/16 10:20:55;;;;;;;30.38;26.00;;;;;;;6.29;100.00;102368.53;5116866;28;20455;-37
2023/02/16 10:23:39;;;;;;;34.92;26.58;;;;;;;6.33;100.00;102374.41;5116528;28;20502;-37
2023/02/16 10:26:37;;;;;;;30.75;27.10;;;;;;;6.34;100.00;102370.72;5117184;28;20047;-37
2023/02/16 10:29:12;;;;;;;28.50;25.35;;;;;;;6.36;100.00;102369.56;5109656;28;20036;-37
2023/02/16 10:31:42;;;;;;;30.02;26.15;;;;;;;6.36;100.00;102366.88;5116398;28;20019;-37
2023/02/16 10:34:19;;;;;;;31.15;27.73;;;;;;;6.41;100.00;102377.13;5116566;28;20027;-37
2023/02/16 10:37:03;;;;;;;31.55;27.52;;;;;;;6.39;100.00;102361.19;5116794;28;20066;-37
2023/02/16 10:39:31;;;;;;;33.03;27.10;;;;;;;6.40;100.00;102365.53;5116513;28;20072;-37
2023/02/16 10:42:10;;;;;;;30.50;26.83;;;;;;;6.35;100.00;102353.63;5116743;28;20051;-37
2023/02/16 10:44:42;;;;;;;29.83;26.63;;;;;;;6.40;100.00;102378.13;5116961;28;20035;-37
2023/02/16 10:47:25;;;;;;;29.67;26.48;;;;;;;6.37;100.00;102379.31;5116781;28;20028;-37
2023/02/16 10:49:51;;;;;;;30.25;27.05;;;;;;;6.34;100.00;102363.50;5116633;28;20031;-37
2023/02/16 10:52:17;;;;;;;;;;;;;;;6.38;100.00;102364.00;5116705;28;20023;-37
2023/02/16 10:54:42;;;;;;;28.52;24.95;;;;;;;6.28;100.00;102369.53;5116518;28;19918;-37
2023/02/16 10:57:24;;;;;;;35.17;28.30;;;;;;;6.30;100.00;102377.47;5116116;28;20106;-37
2023/02/16 10:59:50;;;;;;;31.30;27.60;;;;;;;6.29;100.00;102371.22;5116154;28;20028;-37
2023/02/16 11:02:27;;;;;;;32.67;27.30;;;;;;;6.29;100.00;102379.28;5116127;28;20035;-37
2023/02/16 11:04:58;;;;;;;32.42;28.92;;;;;;;6.24;100.00;102378.94;5116867;28;20032;-37
2023/02/16 11:07:27;;;;;;;32.85;27.73;;;;;;;6.24;100.00;102378.94;5116260;28;20032;-37
2023/02/16 11:09:54;;;;;;;34.13;29.00;;;;;;;6.26;100.00;102368.03;5115633;28;20028;-37
2023/02/16 11:12:27;;;;;;;31.38;27.83;;;;;;;6.25;100.00;102363.69;5116106;28;20085;-37
2023/02/16 11:14:57;;;;;;;33.97;29.38;;;;;;;6.26;100.00;102360.81;5116104;28;20028;-37
2023/02/16 11:17:24;;;;;;;35.58;28.83;;;;;;;6.30;100.00;102355.97;5115530;28;20410;-37
2023/02/16 11:19:57;;;;;;;36.72;30.77;;;;;;;6.33;100.00;102352.94;5116249;28;20404;-37
2023/02/16 11:22:26;;;;;;;35.20;29.85;;;;;;;6.30;100.00;102346.06;5115971;28;20411;-37
2023/02/16 11:24:53;;;;;;;35.38;29.92;;;;;;;6.37;100.00;102352.44;5115195;28;20024;-37
2023/02/16 11:27:21;;;;;;;40.42;31.45;;;;;;;6.35;100.00;102332.97;5115603;28;20146;-37
2023/02/16 11:29:47;;;;;;;33.72;29.25;;;;;;;6.43;100.00;102346.38;5116313;28;20027;-37
2023/02/16 11:32:16;;;;;;;34.08;30.48;;;;;;;6.46;100.00;102339.84;5115104;28;20375;-37
2023/02/16 11:34:46;;;;;;;34.35;30.63;;;;;;;6.35;100.00;102314.16;5116314;28;20118;-37
2023/02/16 11:37:24;;;;;;;37.20;28.30;;;;;;;6.55;100.00;102332.63;5116071;28;20122;-36
2023/02/16 11:39:52;;;;;;;33.95;29.35;;;;;;;6.59;100.00;102316.00;5115973;28;20028;-36
2023/02/16 11:42:27;;;;;;;37.03;29.02;;;;;;;6.68;100.00;102322.19;5115330;28;20023;-37
2023/02/16 11:44:55;;;;;;;36.05;29.60;;;;;;;6.85;100.00;102326.56;5115223;28;20039;-37
2023/02/16 11:47:21;;;;;;;37.08;31.60;;;;;;;6.90;100.00;102331.41;5115441;28;20035;-37
2023/02/16 11:49:47;;;;;;;34.80;30.63;;;;;;;7.02;100.00;102321.13;5115203;28;20035;-37
2023/02/16 11:52:31;;;;;;;;;;;;;;;7.11;100.00;102317.41;5115577;27;20098;-37
2023/02/16 11:54:58;;;;;;;32.42;27.02;;;;;;;7.13;100.00;102293.88;5114520;28;20389;-37
2023/02/16 11:57:28;;;;;;;33.75;28.58;;;;;;;7.30;100.00;102305.41;5114881;28;20023;-37